sensor_id;sensor_type;location;lat;lon;timestamp;pressure;altitude;pressure_sealevel;temperature
8362;BMP180;4218;48.326;14.304;2023-07-29T00:00:45;98079.00;;;19.20
8362;BMP180;4218;48.326;14.304;2023-07-29T00:03:11;98078.00;;;19.10
8362;BMP180;4218;48.326;14.304;2023-07-29T00:05:37;98077.00;;;19.00
8362;BMP180;4218;48.326;14.304;2023-07-29T00:08:03;98082.00;;;18.90
8362;BMP180;4218;48.326;14.304;2023-07-29T00:10:28;98082.00;;;18.80
8362;BMP180;4218;48.326;14.304;2023-07-29T00:12:54;98086.00;;;18.70
8362;BMP180;4218;48.326;14.304;2023-07-29T00:15:19;98076.00;;;18.60
8362;BMP180;4218;48.326;14.304;2023-07-29T00:17:45;98073.00;;;18.80
8362;BMP180;4218;48.326;14.304;2023-07-29T00:20:10;98072.00;;;18.80
8362;BMP180;4218;48.326;14.304;2023-07-29T00:22:36;98064.00;;;18.90
8362;BMP180;4218;48.326;14.304;2023-07-29T00:25:01;98063.00;;;19.00
8362;BMP180;4218;48.326;14.304;2023-07-29T00:27:27;98059.00;;;18.80
8362;BMP180;4218;48.326;14.304;2023-07-29T00:29:52;98057.00;;;18.90
8362;BMP180;4218;48.326;14.304;2023-07-29T00:32:17;98063.00;;;18.90
8362;BMP180;4218;48.326;14.304;2023-07-29T00:34:44;98059.00;;;18.80
8362;BMP180;4218;48.326;14.304;2023-07-29T00:37:09;98053.00;;;18.80
8362;BMP180;4218;48.326;14.304;2023-07-29T00:39:37;98054.00;;;18.80
8362;BMP180;4218;48.326;14.304;2023-07-29T00:42:03;98064.00;;;19.10
8362;BMP180;4218;48.326;14.304;2023-07-29T00:44:28;98065.00;;;18.90
8362;BMP180;4218;48.326;14.304;2023-07-29T00:46:54;98060.00;;;18.90
8362;BMP180;4218;48.326;14.304;2023-07-29T00:49:20;98060.00;;;18.90
8362;BMP180;4218;48.326;14.304;2023-07-29T00:51:46;98068.00;;;18.80
8362;BMP180;4218;48.326;14.304;2023-07-29T00:54:12;98065.00;;;18.70
8362;BMP180;4218;48.326;14.304;2023-07-29T00:56:37;98067.00;;;19.00
8362;BMP180;4218;48.326;14.304;2023-07-29T00:59:03;98061.00;;;18.90
8362;BMP180;4218;48.326;14.304;2023-07-29T01:01:30;98066.00;;;19.10
8362;BMP180;4218;48.326;14.304;2023-07-29T01:03:56;98076.00;;;19.00
8362;BMP180;4218;48.326;14.304;2023-07-29T01:06:53;98080.00;;;18.80
8362;BMP180;4218;48.326;14.304;2023-07-29T01:12:45;98074.00;;;18.90
8362;BMP180;4218;48.326;14.304;2023-07-29T01:15:26;98068.00;;;18.90
8362;BMP180;4218;48.326;14.304;2023-07-29T01:18:08;98073.00;;;19.20
8362;BMP180;4218;48.326;14.304;2023-07-29T01:20:37;98073.00;;;18.70
8362;BMP180;4218;48.326;14.304;2023-07-29T01:23:04;98068.00;;;19.00
8362;BMP180;4218;48.326;14.304;2023-07-29T01:25:29;98064.00;;;18.80
8362;BMP180;4218;48.326;14.304;2023-07-29T01:27:54;98054.00;;;18.50
8362;BMP180;4218;48.326;14.304;2023-07-29T01:30:22;98055.00;;;18.40
8362;BMP180;4218;48.326;14.304;2023-07-29T01:33:09;98054.00;;;18.50
8362;BMP180;4218;48.326;14.304;2023-07-29T01:35:57;98047.00;;;18.40
8362;BMP180;4218;48.326;14.304;2023-07-29T01:41:00;98053.00;;;18.50
8362;BMP180;4218;48.326;14.304;2023-07-29T01:43:28;98050.00;;;18.70
8362;BMP180;4218;48.326;14.304;2023-07-29T01:45:54;98046.00;;;18.80
8362;BMP180;4218;48.326;14.304;2023-07-29T01:48:19;98044.00;;;18.80
8362;BMP180;4218;48.326;14.304;2023-07-29T01:50:45;98048.00;;;18.70
8362;BMP180;4218;48.326;14.304;2023-07-29T01:53:10;98041.00;;;18.70
8362;BMP180;4218;48.326;14.304;2023-07-29T01:55:36;98040.00;;;18.70
8362;BMP180;4218;48.326;14.304;2023-07-29T01:58:01;98045.00;;;18.90
8362;BMP180;4218;48.326;14.304;2023-07-29T02:00:26;98044.00;;;18.80
8362;BMP180;4218;48.326;14.304;2023-07-29T02:02:52;98044.00;;;18.90
8362;BMP180;4218;48.326;14.304;2023-07-29T02:05:17;98043.00;;;18.90
8362;BMP180;4218;48.326;14.304;2023-07-29T02:07:43;98038.00;;;18.70
8362;BMP180;4218;48.326;14.304;2023-07-29T02:10:08;98041.00;;;18.80
8362;BMP180;4218;48.326;14.304;2023-07-29T02:12:34;98039.00;;;18.70
8362;BMP180;4218;48.326;14.304;2023-07-29T02:14:59;98047.00;;;18.70
8362;BMP180;4218;48.326;14.304;2023-07-29T02:17:24;98049.00;;;18.60
8362;BMP180;4218;48.326;14.304;2023-07-29T02:19:51;98050.00;;;18.70
8362;BMP180;4218;48.326;14.304;2023-07-29T02:22:17;98049.00;;;18.60
8362;BMP180;4218;48.326;14.304;2023-07-29T02:24:43;98051.00;;;18.50
8362;BMP180;4218;48.326;14.304;2023-07-29T02:27:08;98054.00;;;18.50
8362;BMP180;4218;48.326;14.304;2023-07-29T02:29:33;98051.00;;;18.60
8362;BMP180;4218;48.326;14.304;2023-07-29T02:32:00;98057.00;;;18.60
8362;BMP180;4218;48.326;14.304;2023-07-29T02:34:26;98058.00;;;18.60
8362;BMP180;4218;48.326;14.304;2023-07-29T02:36:51;98064.00;;;18.30
8362;BMP180;4218;48.326;14.304;2023-07-29T02:39:17;98060.00;;;18.30
8362;BMP180;4218;48.326;14.304;2023-07-29T02:41:42;98062.00;;;18.20
8362;BMP180;4218;48.326;14.304;2023-07-29T02:44:08;98065.00;;;18.20
8362;BMP180;4218;48.326;14.304;2023-07-29T02:46:33;98064.00;;;18.10
8362;BMP180;4218;48.326;14.304;2023-07-29T02:48:58;98062.00;;;18.10
8362;BMP180;4218;48.326;14.304;2023-07-29T02:51:24;98060.00;;;17.90
8362;BMP180;4218;48.326;14.304;2023-07-29T02:53:50;98054.00;;;17.60
8362;BMP180;4218;48.326;14.304;2023-07-29T02:56:17;98062.00;;;17.60
8362;BMP180;4218;48.326;14.304;2023-07-29T02:58:45;98052.00;;;17.50
8362;BMP180;4218;48.326;14.304;2023-07-29T03:01:11;98049.00;;;17.50
8362;BMP180;4218;48.326;14.304;2023-07-29T03:03:36;98043.00;;;17.50
8362;BMP180;4218;48.326;14.304;2023-07-29T03:06:04;98037.00;;;17.60
8362;BMP180;4218;48.326;14.304;2023-07-29T03:08:30;98049.00;;;17.60
8362;BMP180;4218;48.326;14.304;2023-07-29T03:10:56;98042.00;;;17.60
8362;BMP180;4218;48.326;14.304;2023-07-29T03:13:22;98045.00;;;17.60
8362;BMP180;4218;48.326;14.304;2023-07-29T03:15:47;98040.00;;;17.70
8362;BMP180;4218;48.326;14.304;2023-07-29T03:18:14;98043.00;;;17.90
8362;BMP180;4218;48.326;14.304;2023-07-29T03:20:39;98049.00;;;17.90
8362;BMP180;4218;48.326;14.304;2023-07-29T03:23:04;98050.00;;;18.00
8362;BMP180;4218;48.326;14.304;2023-07-29T03:25:30;98048.00;;;18.20
8362;BMP180;4218;48.326;14.304;2023-07-29T03:27:55;98053.00;;;18.10
8362;BMP180;4218;48.326;14.304;2023-07-29T03:30:21;98038.00;;;18.10
8362;BMP180;4218;48.326;14.304;2023-07-29T03:32:47;98034.00;;;18.20
8362;BMP180;4218;48.326;14.304;2023-07-29T03:35:13;98045.00;;;18.10
8362;BMP180;4218;48.326;14.304;2023-07-29T03:37:39;98039.00;;;18.10
8362;BMP180;4218;48.326;14.304;2023-07-29T03:40:05;98036.00;;;18.30
8362;BMP180;4218;48.326;14.304;2023-07-29T03:42:33;98049.00;;;18.10
8362;BMP180;4218;48.326;14.304;2023-07-29T03:44:58;98056.00;;;18.30
8362;BMP180;4218;48.326;14.304;2023-07-29T03:47:23;98062.00;;;18.50
8362;BMP180;4218;48.326;14.304;2023-07-29T03:49:49;98065.00;;;18.40
8362;BMP180;4218;48.326;14.304;2023-07-29T03:52:15;98063.00;;;18.30
8362;BMP180;4218;48.326;14.304;2023-07-29T03:54:41;98073.00;;;18.20
8362;BMP180;4218;48.326;14.304;2023-07-29T03:57:06;98077.00;;;18.20
8362;BMP180;4218;48.326;14.304;2023-07-29T03:59:32;98079.00;;;18.10
8362;BMP180;4218;48.326;14.304;2023-07-29T04:01:57;98078.00;;;17.90
8362;BMP180;4218;48.326;14.304;2023-07-29T04:04:22;98084.00;;;17.80
8362;BMP180;4218;48.326;14.304;2023-07-29T04:06:48;98077.00;;;17.70
8362;BMP180;4218;48.326;14.304;2023-07-29T04:09:13;98077.00;;;17.60
8362;BMP180;4218;48.326;14.304;2023-07-29T04:11:39;98077.00;;;17.70
8362;BMP180;4218;48.326;14.304;2023-07-29T04:14:04;98084.00;;;17.80
8362;BMP180;4218;48.326;14.304;2023-07-29T04:16:30;98091.00;;;17.80
8362;BMP180;4218;48.326;14.304;2023-07-29T04:18:55;98092.00;;;17.60
8362;BMP180;4218;48.326;14.304;2023-07-29T04:21:20;98091.00;;;17.60
8362;BMP180;4218;48.326;14.304;2023-07-29T04:23:47;98095.00;;;17.60
8362;BMP180;4218;48.326;14.304;2023-07-29T04:26:12;98102.00;;;17.70
8362;BMP180;4218;48.326;14.304;2023-07-29T04:28:38;98108.00;;;17.80
8362;BMP180;4218;48.326;14.304;2023-07-29T04:31:03;98097.00;;;18.00
8362;BMP180;4218;48.326;14.304;2023-07-29T04:33:29;98099.00;;;18.00
8362;BMP180;4218;48.326;14.304;2023-07-29T04:35:55;98109.00;;;18.20
8362;BMP180;4218;48.326;14.304;2023-07-29T04:38:24;98100.00;;;18.30
8362;BMP180;4218;48.326;14.304;2023-07-29T04:40:50;98104.00;;;18.40
8362;BMP180;4218;48.326;14.304;2023-07-29T04:43:15;98110.00;;;18.50
8362;BMP180;4218;48.326;14.304;2023-07-29T04:45:44;98118.00;;;18.50
8362;BMP180;4218;48.326;14.304;2023-07-29T04:48:09;98116.00;;;18.50
8362;BMP180;4218;48.326;14.304;2023-07-29T04:50:34;98113.00;;;18.60
8362;BMP180;4218;48.326;14.304;2023-07-29T04:53:00;98108.00;;;18.60
8362;BMP180;4218;48.326;14.304;2023-07-29T04:55:25;98117.00;;;18.70
8362;BMP180;4218;48.326;14.304;2023-07-29T04:57:51;98119.00;;;18.70
8362;BMP180;4218;48.326;14.304;2023-07-29T05:00:17;98118.00;;;18.80
8362;BMP180;4218;48.326;14.304;2023-07-29T05:02:42;98108.00;;;18.90
8362;BMP180;4218;48.326;14.304;2023-07-29T05:05:07;98110.00;;;18.90
8362;BMP180;4218;48.326;14.304;2023-07-29T05:07:33;98109.00;;;18.90
8362;BMP180;4218;48.326;14.304;2023-07-29T05:09:58;98110.00;;;18.90
8362;BMP180;4218;48.326;14.304;2023-07-29T05:12:24;98096.00;;;18.90
8362;BMP180;4218;48.326;14.304;2023-07-29T05:14:49;98099.00;;;18.90
8362;BMP180;4218;48.326;14.304;2023-07-29T05:17:14;98100.00;;;19.00
8362;BMP180;4218;48.326;14.304;2023-07-29T05:19:40;98105.00;;;19.00
8362;BMP180;4218;48.326;14.304;2023-07-29T05:22:05;98101.00;;;18.90
8362;BMP180;4218;48.326;14.304;2023-07-29T05:24:31;98107.00;;;18.80
8362;BMP180;4218;48.326;14.304;2023-07-29T05:26:56;98103.00;;;18.70
8362;BMP180;4218;48.326;14.304;2023-07-29T05:29:21;98101.00;;;18.70
8362;BMP180;4218;48.326;14.304;2023-07-29T05:31:47;98110.00;;;18.70
8362;BMP180;4218;48.326;14.304;2023-07-29T05:34:12;98107.00;;;18.70
8362;BMP180;4218;48.326;14.304;2023-07-29T05:36:37;98105.00;;;18.80
8362;BMP180;4218;48.326;14.304;2023-07-29T05:39:04;98108.00;;;18.70
8362;BMP180;4218;48.326;14.304;2023-07-29T05:41:29;98105.00;;;18.60
8362;BMP180;4218;48.326;14.304;2023-07-29T05:43:55;98112.00;;;18.60
8362;BMP180;4218;48.326;14.304;2023-07-29T05:46:20;98113.00;;;18.50
8362;BMP180;4218;48.326;14.304;2023-07-29T05:48:45;98099.00;;;18.60
8362;BMP180;4218;48.326;14.304;2023-07-29T05:51:11;98106.00;;;18.70
8362;BMP180;4218;48.326;14.304;2023-07-29T05:53:36;98106.00;;;18.70
8362;BMP180;4218;48.326;14.304;2023-07-29T05:56:01;98112.00;;;18.80
8362;BMP180;4218;48.326;14.304;2023-07-29T05:58:27;98110.00;;;18.90
8362;BMP180;4218;48.326;14.304;2023-07-29T06:00:53;98118.00;;;19.20
8362;BMP180;4218;48.326;14.304;2023-07-29T06:03:18;98118.00;;;19.30
8362;BMP180;4218;48.326;14.304;2023-07-29T06:05:43;98118.00;;;19.40
8362;BMP180;4218;48.326;14.304;2023-07-29T06:08:09;98116.00;;;19.40
8362;BMP180;4218;48.326;14.304;2023-07-29T06:10:34;98116.00;;;19.50
8362;BMP180;4218;48.326;14.304;2023-07-29T06:13:00;98110.00;;;19.60
8362;BMP180;4218;48.326;14.304;2023-07-29T06:15:26;98112.00;;;19.80
8362;BMP180;4218;48.326;14.304;2023-07-29T06:17:53;98111.00;;;19.80
8362;BMP180;4218;48.326;14.304;2023-07-29T06:20:18;98107.00;;;19.90
8362;BMP180;4218;48.326;14.304;2023-07-29T06:22:43;98102.00;;;20.00
8362;BMP180;4218;48.326;14.304;2023-07-29T06:25:09;98107.00;;;20.20
8362;BMP180;4218;48.326;14.304;2023-07-29T06:27:34;98105.00;;;20.10
8362;BMP180;4218;48.326;14.304;2023-07-29T06:29:59;98094.00;;;20.10
8362;BMP180;4218;48.326;14.304;2023-07-29T06:32:26;98088.00;;;20.20
8362;BMP180;4218;48.326;14.304;2023-07-29T06:34:51;98076.00;;;20.30
8362;BMP180;4218;48.326;14.304;2023-07-29T06:37:19;98073.00;;;20.30
8362;BMP180;4218;48.326;14.304;2023-07-29T06:39:44;98070.00;;;20.30
8362;BMP180;4218;48.326;14.304;2023-07-29T06:42:09;98073.00;;;20.30
8362;BMP180;4218;48.326;14.304;2023-07-29T06:44:35;98091.00;;;20.30
8362;BMP180;4218;48.326;14.304;2023-07-29T06:47:00;98084.00;;;20.30
8362;BMP180;4218;48.326;14.304;2023-07-29T06:49:25;98075.00;;;20.50
8362;BMP180;4218;48.326;14.304;2023-07-29T06:51:51;98083.00;;;20.50
8362;BMP180;4218;48.326;14.304;2023-07-29T06:54:16;98081.00;;;20.60
8362;BMP180;4218;48.326;14.304;2023-07-29T06:56:42;98079.00;;;20.70
8362;BMP180;4218;48.326;14.304;2023-07-29T06:59:07;98080.00;;;20.90
8362;BMP180;4218;48.326;14.304;2023-07-29T07:01:33;98077.00;;;20.90
8362;BMP180;4218;48.326;14.304;2023-07-29T07:03:59;98078.00;;;20.80
8362;BMP180;4218;48.326;14.304;2023-07-29T07:06:24;98074.00;;;20.80
8362;BMP180;4218;48.326;14.304;2023-07-29T07:08:50;98076.00;;;21.00
8362;BMP180;4218;48.326;14.304;2023-07-29T07:11:16;98071.00;;;21.00
8362;BMP180;4218;48.326;14.304;2023-07-29T07:13:41;98075.00;;;21.30
8362;BMP180;4218;48.326;14.304;2023-07-29T07:16:06;98066.00;;;21.40
8362;BMP180;4218;48.326;14.304;2023-07-29T07:18:32;98074.00;;;21.40
8362;BMP180;4218;48.326;14.304;2023-07-29T07:20:57;98066.00;;;21.40
8362;BMP180;4218;48.326;14.304;2023-07-29T07:23:22;98057.00;;;21.70
8362;BMP180;4218;48.326;14.304;2023-07-29T07:25:48;98060.00;;;21.70
8362;BMP180;4218;48.326;14.304;2023-07-29T07:28:13;98060.00;;;21.80
8362;BMP180;4218;48.326;14.304;2023-07-29T07:30:42;98053.00;;;22.00
8362;BMP180;4218;48.326;14.304;2023-07-29T07:33:07;98062.00;;;22.10
8362;BMP180;4218;48.326;14.304;2023-07-29T07:35:33;98064.00;;;22.10
8362;BMP180;4218;48.326;14.304;2023-07-29T07:37:58;98052.00;;;22.10
8362;BMP180;4218;48.326;14.304;2023-07-29T07:40:26;98060.00;;;22.30
8362;BMP180;4218;48.326;14.304;2023-07-29T07:42:52;98055.00;;;22.50
8362;BMP180;4218;48.326;14.304;2023-07-29T07:45:17;98044.00;;;22.40
8362;BMP180;4218;48.326;14.304;2023-07-29T07:47:46;98037.00;;;22.40
8362;BMP180;4218;48.326;14.304;2023-07-29T07:50:11;98038.00;;;22.60
8362;BMP180;4218;48.326;14.304;2023-07-29T07:52:36;98047.00;;;22.60
8362;BMP180;4218;48.326;14.304;2023-07-29T07:55:02;98043.00;;;22.80
8362;BMP180;4218;48.326;14.304;2023-07-29T07:57:27;98050.00;;;22.90
8362;BMP180;4218;48.326;14.304;2023-07-29T07:59:53;98035.00;;;22.80
8362;BMP180;4218;48.326;14.304;2023-07-29T08:02:18;98023.00;;;22.80
8362;BMP180;4218;48.326;14.304;2023-07-29T08:04:44;98029.00;;;23.00
8362;BMP180;4218;48.326;14.304;2023-07-29T08:07:09;98030.00;;;23.10
8362;BMP180;4218;48.326;14.304;2023-07-29T08:09:34;98027.00;;;23.00
8362;BMP180;4218;48.326;14.304;2023-07-29T08:12:00;98027.00;;;23.10
8362;BMP180;4218;48.326;14.304;2023-07-29T08:14:25;98021.00;;;23.00
8362;BMP180;4218;48.326;14.304;2023-07-29T08:16:51;98023.00;;;23.20
8362;BMP180;4218;48.326;14.304;2023-07-29T08:19:16;98023.00;;;23.40
8362;BMP180;4218;48.326;14.304;2023-07-29T08:21:42;98026.00;;;23.60
8362;BMP180;4218;48.326;14.304;2023-07-29T08:24:07;98028.00;;;23.90
8362;BMP180;4218;48.326;14.304;2023-07-29T08:26:33;98031.00;;;24.00
8362;BMP180;4218;48.326;14.304;2023-07-29T08:28:58;98037.00;;;24.20
8362;BMP180;4218;48.326;14.304;2023-07-29T08:31:24;98037.00;;;24.20
8362;BMP180;4218;48.326;14.304;2023-07-29T08:33:49;98029.00;;;24.10
8362;BMP180;4218;48.326;14.304;2023-07-29T08:36:15;98040.00;;;24.00
8362;BMP180;4218;48.326;14.304;2023-07-29T08:38:40;98035.00;;;23.80
8362;BMP180;4218;48.326;14.304;2023-07-29T08:41:16;98034.00;;;23.90
8362;BMP180;4218;48.326;14.304;2023-07-29T08:43:52;98034.00;;;23.70
8362;BMP180;4218;48.326;14.304;2023-07-29T08:46:21;98038.00;;;23.80
8362;BMP180;4218;48.326;14.304;2023-07-29T08:48:47;98037.00;;;23.80
8362;BMP180;4218;48.326;14.304;2023-07-29T08:51:12;98036.00;;;23.90
8362;BMP180;4218;48.326;14.304;2023-07-29T08:53:39;98037.00;;;23.90
8362;BMP180;4218;48.326;14.304;2023-07-29T08:56:06;98034.00;;;23.90
8362;BMP180;4218;48.326;14.304;2023-07-29T08:58:32;98033.00;;;23.90
8362;BMP180;4218;48.326;14.304;2023-07-29T09:00:57;98028.00;;;24.00
8362;BMP180;4218;48.326;14.304;2023-07-29T09:03:23;98033.00;;;23.90
8362;BMP180;4218;48.326;14.304;2023-07-29T09:05:48;98030.00;;;23.80
8362;BMP180;4218;48.326;14.304;2023-07-29T09:08:14;98030.00;;;23.80
8362;BMP180;4218;48.326;14.304;2023-07-29T09:10:40;98027.00;;;24.00
8362;BMP180;4218;48.326;14.304;2023-07-29T09:13:06;98030.00;;;24.00
8362;BMP180;4218;48.326;14.304;2023-07-29T09:15:35;98032.00;;;24.10
8362;BMP180;4218;48.326;14.304;2023-07-29T09:18:15;98031.00;;;24.10
8362;BMP180;4218;48.326;14.304;2023-07-29T09:20:40;98042.00;;;24.00
8362;BMP180;4218;48.326;14.304;2023-07-29T09:23:10;98033.00;;;24.20
8362;BMP180;4218;48.326;14.304;2023-07-29T09:25:36;98035.00;;;24.30
8362;BMP180;4218;48.326;14.304;2023-07-29T09:28:08;98024.00;;;24.20
8362;BMP180;4218;48.326;14.304;2023-07-29T09:30:33;98033.00;;;24.20
8362;BMP180;4218;48.326;14.304;2023-07-29T09:32:59;98036.00;;;24.20
8362;BMP180;4218;48.326;14.304;2023-07-29T09:35:30;98037.00;;;24.40
8362;BMP180;4218;48.326;14.304;2023-07-29T09:37:57;98034.00;;;24.60
8362;BMP180;4218;48.326;14.304;2023-07-29T09:40:22;98050.00;;;24.60
8362;BMP180;4218;48.326;14.304;2023-07-29T09:42:52;98056.00;;;24.80
8362;BMP180;4218;48.326;14.304;2023-07-29T09:45:21;98063.00;;;25.10
8362;BMP180;4218;48.326;14.304;2023-07-29T09:47:47;98065.00;;;25.30
8362;BMP180;4218;48.326;14.304;2023-07-29T09:50:13;98074.00;;;25.30
8362;BMP180;4218;48.326;14.304;2023-07-29T09:52:38;98076.00;;;25.60
8362;BMP180;4218;48.326;14.304;2023-07-29T09:55:04;98079.00;;;25.50
8362;BMP180;4218;48.326;14.304;2023-07-29T09:57:31;98101.00;;;25.40
8362;BMP180;4218;48.326;14.304;2023-07-29T09:59:57;98085.00;;;25.20
8362;BMP180;4218;48.326;14.304;2023-07-29T10:02:23;98090.00;;;25.30
8362;BMP180;4218;48.326;14.304;2023-07-29T10:04:52;98096.00;;;25.20
8362;BMP180;4218;48.326;14.304;2023-07-29T10:07:17;98105.00;;;25.00
8362;BMP180;4218;48.326;14.304;2023-07-29T10:09:45;98114.00;;;24.80
8362;BMP180;4218;48.326;14.304;2023-07-29T10:12:10;98118.00;;;24.00
8362;BMP180;4218;48.326;14.304;2023-07-29T10:14:38;98132.00;;;23.00
8362;BMP180;4218;48.326;14.304;2023-07-29T10:17:04;98136.00;;;22.20
8362;BMP180;4218;48.326;14.304;2023-07-29T10:19:30;98130.00;;;21.40
8362;BMP180;4218;48.326;14.304;2023-07-29T10:21:59;98109.00;;;20.90
8362;BMP180;4218;48.326;14.304;2023-07-29T10:24:29;98104.00;;;20.80
8362;BMP180;4218;48.326;14.304;2023-07-29T10:27:00;98104.00;;;20.70
8362;BMP180;4218;48.326;14.304;2023-07-29T10:29:30;98107.00;;;20.70
8362;BMP180;4218;48.326;14.304;2023-07-29T10:31:57;98106.00;;;20.70
8362;BMP180;4218;48.326;14.304;2023-07-29T10:34:23;98098.00;;;20.70
8362;BMP180;4218;48.326;14.304;2023-07-29T10:36:49;98096.00;;;21.00
8362;BMP180;4218;48.326;14.304;2023-07-29T10:39:15;98100.00;;;20.80
8362;BMP180;4218;48.326;14.304;2023-07-29T10:42:01;98095.00;;;20.90
8362;BMP180;4218;48.326;14.304;2023-07-29T10:47:30;98090.00;;;20.80
8362;BMP180;4218;48.326;14.304;2023-07-29T10:49:57;98089.00;;;20.90
8362;BMP180;4218;48.326;14.304;2023-07-29T10:54:57;98084.00;;;21.20
8362;BMP180;4218;48.326;14.304;2023-07-29T10:57:34;98080.00;;;21.30
8362;BMP180;4218;48.326;14.304;2023-07-29T11:00:00;98070.00;;;21.20
8362;BMP180;4218;48.326;14.304;2023-07-29T11:02:31;98059.00;;;21.40
8362;BMP180;4218;48.326;14.304;2023-07-29T11:04:59;98066.00;;;21.60
8362;BMP180;4218;48.326;14.304;2023-07-29T11:07:25;98066.00;;;21.80
8362;BMP180;4218;48.326;14.304;2023-07-29T11:09:59;98075.00;;;21.90
8362;BMP180;4218;48.326;14.304;2023-07-29T11:12:43;98063.00;;;22.00
8362;BMP180;4218;48.326;14.304;2023-07-29T11:17:39;98054.00;;;22.20
8362;BMP180;4218;48.326;14.304;2023-07-29T11:20:05;98064.00;;;22.40
8362;BMP180;4218;48.326;14.304;2023-07-29T11:22:32;98052.00;;;22.40
8362;BMP180;4218;48.326;14.304;2023-07-29T11:24:58;98050.00;;;22.40
8362;BMP180;4218;48.326;14.304;2023-07-29T11:27:23;98049.00;;;22.50
8362;BMP180;4218;48.326;14.304;2023-07-29T11:29:49;98045.00;;;22.60
8362;BMP180;4218;48.326;14.304;2023-07-29T11:32:15;98046.00;;;22.90
8362;BMP180;4218;48.326;14.304;2023-07-29T11:34:41;98038.00;;;23.40
8362;BMP180;4218;48.326;14.304;2023-07-29T11:37:10;98031.00;;;23.50
8362;BMP180;4218;48.326;14.304;2023-07-29T11:39:43;98025.00;;;23.50
8362;BMP180;4218;48.326;14.304;2023-07-29T11:42:12;98027.00;;;23.40
8362;BMP180;4218;48.326;14.304;2023-07-29T11:44:38;98024.00;;;23.40
8362;BMP180;4218;48.326;14.304;2023-07-29T11:47:07;98014.00;;;23.50
8362;BMP180;4218;48.326;14.304;2023-07-29T11:49:33;98013.00;;;23.60
8362;BMP180;4218;48.326;14.304;2023-07-29T11:51:59;98021.00;;;23.70
8362;BMP180;4218;48.326;14.304;2023-07-29T11:54:25;98015.00;;;24.00
8362;BMP180;4218;48.326;14.304;2023-07-29T11:56:51;98016.00;;;24.20
8362;BMP180;4218;48.326;14.304;2023-07-29T11:59:16;98014.00;;;24.30
8362;BMP180;4218;48.326;14.304;2023-07-29T12:01:41;98012.00;;;24.10
8362;BMP180;4218;48.326;14.304;2023-07-29T12:04:07;98021.00;;;24.20
8362;BMP180;4218;48.326;14.304;2023-07-29T12:06:33;98015.00;;;24.50
8362;BMP180;4218;48.326;14.304;2023-07-29T12:08:58;98011.00;;;24.90
8362;BMP180;4218;48.326;14.304;2023-07-29T12:11:24;98015.00;;;24.80
8362;BMP180;4218;48.326;14.304;2023-07-29T12:13:49;98007.00;;;24.70
8362;BMP180;4218;48.326;14.304;2023-07-29T12:16:17;98003.00;;;24.50
8362;BMP180;4218;48.326;14.304;2023-07-29T12:18:43;97992.00;;;24.40
8362;BMP180;4218;48.326;14.304;2023-07-29T12:21:09;97995.00;;;24.50
8362;BMP180;4218;48.326;14.304;2023-07-29T12:23:34;97998.00;;;24.50
8362;BMP180;4218;48.326;14.304;2023-07-29T12:26:03;97987.00;;;24.60
8362;BMP180;4218;48.326;14.304;2023-07-29T12:28:30;97989.00;;;24.60
8362;BMP180;4218;48.326;14.304;2023-07-29T12:30:56;97988.00;;;24.80
8362;BMP180;4218;48.326;14.304;2023-07-29T12:33:32;97988.00;;;24.90
8362;BMP180;4218;48.326;14.304;2023-07-29T12:35:58;97988.00;;;25.40
8362;BMP180;4218;48.326;14.304;2023-07-29T12:38:25;97983.00;;;25.70
8362;BMP180;4218;48.326;14.304;2023-07-29T12:40:51;97969.00;;;25.50
8362;BMP180;4218;48.326;14.304;2023-07-29T12:43:16;97966.00;;;25.70
8362;BMP180;4218;48.326;14.304;2023-07-29T12:45:42;97948.00;;;25.70
8362;BMP180;4218;48.326;14.304;2023-07-29T12:48:10;97950.00;;;25.50
8362;BMP180;4218;48.326;14.304;2023-07-29T12:50:37;97937.00;;;25.40
8362;BMP180;4218;48.326;14.304;2023-07-29T12:53:03;97941.00;;;25.20
8362;BMP180;4218;48.326;14.304;2023-07-29T12:55:30;97948.00;;;25.10
8362;BMP180;4218;48.326;14.304;2023-07-29T12:57:55;97956.00;;;25.10
8362;BMP180;4218;48.326;14.304;2023-07-29T13:00:23;97955.00;;;25.00
8362;BMP180;4218;48.326;14.304;2023-07-29T13:02:48;97967.00;;;25.20
8362;BMP180;4218;48.326;14.304;2023-07-29T13:05:14;97969.00;;;25.30
8362;BMP180;4218;48.326;14.304;2023-07-29T13:07:39;97956.00;;;25.30
8362;BMP180;4218;48.326;14.304;2023-07-29T13:10:12;97956.00;;;25.10
8362;BMP180;4218;48.326;14.304;2023-07-29T13:12:37;97956.00;;;25.00
8362;BMP180;4218;48.326;14.304;2023-07-29T13:15:04;97958.00;;;24.90
8362;BMP180;4218;48.326;14.304;2023-07-29T13:17:29;97966.00;;;24.70
8362;BMP180;4218;48.326;14.304;2023-07-29T13:19:54;97970.00;;;24.70
8362;BMP180;4218;48.326;14.304;2023-07-29T13:22:20;97964.00;;;24.70
8362;BMP180;4218;48.326;14.304;2023-07-29T13:24:46;97968.00;;;24.60
8362;BMP180;4218;48.326;14.304;2023-07-29T13:27:11;97984.00;;;24.50
8362;BMP180;4218;48.326;14.304;2023-07-29T13:29:37;97982.00;;;24.40
8362;BMP180;4218;48.326;14.304;2023-07-29T13:32:03;97991.00;;;24.20
8362;BMP180;4218;48.326;14.304;2023-07-29T13:34:28;97985.00;;;24.00
8362;BMP180;4218;48.326;14.304;2023-07-29T13:36:53;97995.00;;;23.90
8362;BMP180;4218;48.326;14.304;2023-07-29T13:39:19;97988.00;;;24.10
8362;BMP180;4218;48.326;14.304;2023-07-29T13:41:44;98005.00;;;23.70
8362;BMP180;4218;48.326;14.304;2023-07-29T13:44:10;98002.00;;;23.60
8362;BMP180;4218;48.326;14.304;2023-07-29T13:46:35;98031.00;;;23.50
8362;BMP180;4218;48.326;14.304;2023-07-29T13:49:00;98038.00;;;23.40
8362;BMP180;4218;48.326;14.304;2023-07-29T13:51:30;98035.00;;;23.20
8362;BMP180;4218;48.326;14.304;2023-07-29T13:53:55;98036.00;;;22.80
8362;BMP180;4218;48.326;14.304;2023-07-29T13:56:21;98031.00;;;22.40
8362;BMP180;4218;48.326;14.304;2023-07-29T13:58:47;98021.00;;;21.90
8362;BMP180;4218;48.326;14.304;2023-07-29T14:01:12;98008.00;;;21.70
8362;BMP180;4218;48.326;14.304;2023-07-29T14:03:37;97985.00;;;21.70
8362;BMP180;4218;48.326;14.304;2023-07-29T14:06:03;97967.00;;;21.50
8362;BMP180;4218;48.326;14.304;2023-07-29T14:08:28;97962.00;;;21.30
8362;BMP180;4218;48.326;14.304;2023-07-29T14:10:54;97962.00;;;21.30
8362;BMP180;4218;48.326;14.304;2023-07-29T14:13:19;97969.00;;;21.20
8362;BMP180;4218;48.326;14.304;2023-07-29T14:15:44;97966.00;;;21.30
8362;BMP180;4218;48.326;14.304;2023-07-29T14:18:10;97961.00;;;21.50
8362;BMP180;4218;48.326;14.304;2023-07-29T14:20:35;97961.00;;;21.60
8362;BMP180;4218;48.326;14.304;2023-07-29T14:23:01;97959.00;;;21.60
8362;BMP180;4218;48.326;14.304;2023-07-29T14:25:27;97956.00;;;21.80
8362;BMP180;4218;48.326;14.304;2023-07-29T14:27:52;97964.00;;;21.90
8362;BMP180;4218;48.326;14.304;2023-07-29T14:30:18;97970.00;;;21.90